createdAt,value
2019-05-14T00:00:27.464Z,25.8
2019-05-14T00:02:35.124Z,25.9
2019-05-14T00:03:37.212Z,25.9
2019-05-14T00:04:39.386Z,25.9
2019-05-14T00:05:45.540Z,25.9
2019-05-14T00:06:47.152Z,25.9
2019-05-14T00:07:51.941Z,25.9
2019-05-14T00:08:55.234Z,25.9
2019-05-14T00:09:57.408Z,25.9
2019-05-14T00:12:04.827Z,25.9
2019-05-14T00:13:06.702Z,25.9
2019-05-14T00:15:14.804Z,25.9
2019-05-14T00:16:16.972Z,25.9
2019-05-14T00:17:21.294Z,25.9
2019-05-14T00:18:25.085Z,25.9
2019-05-14T00:19:27.517Z,25.9
2019-05-14T00:21:34.934Z,25.9
2019-05-14T00:22:37.108Z,25.9
2019-05-14T00:23:39.485Z,25.9
2019-05-14T00:24:44.102Z,25.9
2019-05-14T00:25:45.986Z,25.9
2019-05-14T00:26:48.113Z,25.9
2019-05-14T00:27:54.752Z,26
2019-05-14T00:28:56.928Z,25.9
2019-05-14T00:29:59.364Z,25.9
2019-05-14T00:31:05.779Z,25.9
2019-05-14T00:32:08.387Z,25.9
2019-05-14T00:33:13.066Z,25.9
2019-05-14T00:34:15.226Z,25.9
2019-05-14T00:35:17.375Z,25.9
2019-05-14T00:37:24.984Z,25.9
2019-05-14T00:38:27.416Z,25.9
2019-05-14T00:39:29.268Z,25.9
2019-05-14T00:40:33.931Z,26
2019-05-14T00:41:36.355Z,26
2019-05-14T00:42:41.121Z,26
2019-05-14T00:43:44.729Z,26
2019-05-14T00:45:52.250Z,25.9
2019-05-14T00:46:54.746Z,25.9
2019-05-14T00:47:56.905Z,25.9
2019-05-14T00:48:59.071Z,25.9
2019-05-14T00:50:03.277Z,25.9
2019-05-14T00:51:05.402Z,25.9
2019-05-14T00:52:07.545Z,25.9
2019-05-14T00:54:15.437Z,25.9
2019-05-14T00:55:17.575Z,26
2019-05-14T00:57:25.203Z,25.9
2019-05-14T00:58:27.364Z,25.9
2019-05-14T00:59:29.523Z,26
2019-05-14T01:00:34.090Z,26
2019-05-14T01:01:36.509Z,26
2019-05-14T01:02:38.378Z,26
2019-05-14T01:03:44.804Z,26
2019-05-14T01:04:47.222Z,26
2019-05-14T01:05:49.116Z,25.9
2019-05-14T01:06:55.264Z,25.9
2019-05-14T01:07:57.703Z,25.9
2019-05-14T01:10:05.110Z,25.9
2019-05-14T01:11:07.280Z,25.9
2019-05-14T01:12:11.903Z,25.9
2019-05-14T01:13:15.657Z,25.9
2019-05-14T01:14:18.080Z,25.9
2019-05-14T01:15:22.804Z,25.9
2019-05-14T01:16:25.256Z,25.9
2019-05-14T01:17:27.688Z,26
2019-05-14T01:19:35.291Z,26
2019-05-14T01:20:37.448Z,26
2019-05-14T01:21:41.593Z,26
2019-05-14T01:22:45.283Z,26
2019-05-14T01:23:47.934Z,26
2019-05-14T01:24:54.811Z,26
2019-05-14T01:25:56.979Z,25.9
2019-05-14T01:27:01.418Z,25.9
2019-05-14T01:28:04.002Z,26
2019-05-14T01:29:05.904Z,25.9
2019-05-14T01:30:08.341Z,25.9
2019-05-14T01:32:17.876Z,25.9
2019-05-14T01:33:22.283Z,25.9
2019-05-14T01:34:24.700Z,25.9
2019-05-14T01:35:26.600Z,25.9
2019-05-14T01:36:28.770Z,25.9
2019-05-14T01:37:33.460Z,25.9
2019-05-14T01:38:35.913Z,25.9
2019-05-14T01:39:38.072Z,25.9
2019-05-14T01:40:44.978Z,25.9
2019-05-14T01:41:47.772Z,25.9
2019-05-14T01:43:55.162Z,25.9
2019-05-14T01:44:57.326Z,25.9
2019-05-14T01:47:04.932Z,25.9
2019-05-14T01:48:07.075Z,25.9
2019-05-14T01:49:11.849Z,25.9
2019-05-14T01:50:15.184Z,25.9
2019-05-14T01:51:17.618Z,25.9
2019-05-14T01:52:22.203Z,25.9
2019-05-14T01:53:24.377Z,25.9
2019-05-14T01:54:26.808Z,25.9
2019-05-14T01:55:29.251Z,25.9
2019-05-14T01:56:33.673Z,25.9
2019-05-14T01:57:35.559Z,25.9
2019-05-14T01:58:38.604Z,25.9
2019-05-14T01:59:43.999Z,25.9
2019-05-14T02:00:46.431Z,25.9
2019-05-14T02:01:48.868Z,25.9
2019-05-14T02:02:55.309Z,25.9
2019-05-14T02:03:57.718Z,25.9
2019-05-14T02:06:05.126Z,25.9
2019-05-14T02:07:07.286Z,25.9
2019-05-14T02:08:11.954Z,25.9
2019-05-14T02:09:14.005Z,25.9
2019-05-14T02:10:16.432Z,25.9
2019-05-14T02:11:18.323Z,25.9
2019-05-14T02:12:24.684Z,25.9
2019-05-14T02:13:26.573Z,25.9
2019-05-14T02:14:31.281Z,25.8
2019-05-14T02:16:42.659Z,25.9
2019-05-14T02:17:44.833Z,25.9
2019-05-14T02:18:46.996Z,25.8
2019-05-14T02:19:48.876Z,25.8
2019-05-14T02:20:53.112Z,25.8
2019-05-14T02:21:55.289Z,25.8
2019-05-14T02:22:57.741Z,25.9
2019-05-14T02:24:04.836Z,25.9
2019-05-14T02:25:06.710Z,25.9
2019-05-14T02:26:11.267Z,25.9
2019-05-14T02:27:14.822Z,25.9
2019-05-14T02:28:16.702Z,25.9
2019-05-14T02:29:18.765Z,25.9
2019-05-14T02:31:30.345Z,25.9
2019-05-14T02:32:32.778Z,25.9
2019-05-14T02:33:34.932Z,25.9
2019-05-14T02:35:42.080Z,25.9
2019-05-14T02:36:49.369Z,25.9
2019-05-14T02:37:51.558Z,25.9
2019-05-14T02:38:53.989Z,25.9
2019-05-14T02:41:01.657Z,25.9
2019-05-14T02:42:04.101Z,25.9
2019-05-14T02:44:11.717Z,25.9
2019-05-14T02:45:14.147Z,25.9
2019-05-14T02:47:21.311Z,25.9
2019-05-14T02:48:23.724Z,25.9
2019-05-14T02:49:25.878Z,25.9
2019-05-14T02:50:32.505Z,25.9
2019-05-14T02:51:34.942Z,25.9
2019-05-14T02:52:42.478Z,25.9
2019-05-14T02:53:44.909Z,25.9
2019-05-14T02:55:52.027Z,25.9
2019-05-14T02:56:54.457Z,25.9
2019-05-14T03:01:12.328Z,25.9
2019-05-14T03:02:14.749Z,25.9
2019-05-14T03:03:21.655Z,25.9
2019-05-14T03:04:23.822Z,25.8
2019-05-14T03:05:29.302Z,25.8
2019-05-14T03:06:32.203Z,25.8
2019-05-14T03:07:34.375Z,25.8
2019-05-14T03:09:42.414Z,25.8
2019-05-14T03:10:44.855Z,25.8
2019-05-14T03:12:52.276Z,25.7
2019-05-14T03:13:54.720Z,25.7
2019-05-14T03:18:12.327Z,25.6
2019-05-14T03:19:14.486Z,25.6
2019-05-14T03:21:22.396Z,25.6
2019-05-14T03:23:31.384Z,25.6
2019-05-14T03:24:33.251Z,25.6
2019-05-14T03:25:36.161Z,25.6
2019-05-14T03:26:42.612Z,25.6
2019-05-14T03:27:44.755Z,25.5
2019-05-14T03:28:51.658Z,25.5
2019-05-14T03:29:54.088Z,25.5
2019-05-14T03:38:32.195Z,25.4
2019-05-14T03:39:34.667Z,25.4
2019-05-14T03:41:42.544Z,25.4
2019-05-14T03:42:44.978Z,25.4
2019-05-14T03:43:51.876Z,25.4
2019-05-14T03:44:54.478Z,25.4
2019-05-14T03:49:12.378Z,25.4
2019-05-14T03:50:14.244Z,25.4
2019-05-14T03:51:16.673Z,25.4
2019-05-14T03:52:22.555Z,25.4
2019-05-14T03:53:24.993Z,25.4
2019-05-14T03:54:31.428Z,25.3
2019-05-14T03:55:33.595Z,25.4
2019-05-14T03:56:39.182Z,25.3
2019-05-14T03:58:11.025Z,25.3
2019-05-14T03:59:13.433Z,25.3
2019-05-14T04:01:21.416Z,25.3
2019-05-14T04:02:23.852Z,25.3
2019-05-14T04:04:31.741Z,25.3
2019-05-14T04:05:34.247Z,25.3
2019-05-14T04:06:39.934Z,25.3
2019-05-14T04:07:42.343Z,25.3
2019-05-14T04:08:45.391Z,25.3
2019-05-14T04:09:52.016Z,25.3
2019-05-14T04:10:58.725Z,25.3
2019-05-14T04:12:01.686Z,25.3
2019-05-14T04:13:04.141Z,25.3
2019-05-14T04:14:11.434Z,25.3
2019-05-14T04:15:13.872Z,25.3
2019-05-14T04:16:19.911Z,25.3
2019-05-14T04:19:32.238Z,25.3
2019-05-14T04:20:34.414Z,25.3
2019-05-14T04:21:36.011Z,25.3
2019-05-14T04:22:42.158Z,25.2
2019-05-14T04:23:44.331Z,25.3
2019-05-14T04:25:51.186Z,25.3
2019-05-14T04:28:00.780Z,25.2
2019-05-14T04:29:03.206Z,25.2
2019-05-14T04:30:05.358Z,25.2
2019-05-14T04:31:11.771Z,25.2
2019-05-14T04:32:14.381Z,25.2
2019-05-14T04:34:21.987Z,25.2
2019-05-14T04:35:24.158Z,25.2
2019-05-14T04:37:32.417Z,25.2
2019-05-14T04:38:35.468Z,25.2
2019-05-14T04:39:42.363Z,25.2
2019-05-14T04:40:44.531Z,25.2
2019-05-14T04:42:51.892Z,25.2
2019-05-14T04:43:54.254Z,25.2
2019-05-14T04:46:01.575Z,25.2
2019-05-14T04:49:13.463Z,25.2
2019-05-14T04:50:15.619Z,25.2
2019-05-14T04:52:22.485Z,25.2
2019-05-14T04:53:24.914Z,25.2
2019-05-14T04:55:32.934Z,25.2
2019-05-14T04:56:39.356Z,25.2
2019-05-14T04:57:41.923Z,25.2
2019-05-14T04:58:44.337Z,25.2
2019-05-14T05:00:51.770Z,25.2
2019-05-14T05:01:53.942Z,25.2
2019-05-14T05:02:59.674Z,25.2
2019-05-14T05:04:01.763Z,25.2
2019-05-14T05:05:03.937Z,25.2
2019-05-14T05:06:11.476Z,25.2
2019-05-14T05:07:13.919Z,25.2
2019-05-14T05:09:22.152Z,25.2
2019-05-14T05:10:24.306Z,25.2
2019-05-14T05:12:31.662Z,25.2
2019-05-14T05:13:34.103Z,25.2
2019-05-14T05:15:41.515Z,25.2
2019-05-14T05:16:43.403Z,25.2
2019-05-14T05:18:50.798Z,25.2
2019-05-14T05:19:52.977Z,25.2
2019-05-14T05:20:55.404Z,25.2
2019-05-14T05:22:01.744Z,25.2
2019-05-14T05:23:03.896Z,25.2
2019-05-14T05:24:06.314Z,25.2
2019-05-14T05:25:12.462Z,25.2
2019-05-14T05:26:15.086Z,25.2
2019-05-14T05:27:21.993Z,25.2
2019-05-14T05:28:23.883Z,25.2
2019-05-14T05:29:28.334Z,25.2
2019-05-14T05:30:31.023Z,25.2
2019-05-14T05:31:32.904Z,25.2
2019-05-14T05:32:34.806Z,25.2
2019-05-14T05:33:39.378Z,25.2
2019-05-14T05:34:41.816Z,25.2
2019-05-14T05:35:44.599Z,25.2
2019-05-14T05:37:52.013Z,25.2
2019-05-14T05:38:54.442Z,25.2
2019-05-14T05:39:58.854Z,25.2
2019-05-14T05:41:01.478Z,25.2
2019-05-14T05:42:03.671Z,25.2
2019-05-14T05:43:08.714Z,25.2
2019-05-14T05:44:12.056Z,25.2
2019-05-14T05:45:14.511Z,25.2
2019-05-14T05:46:18.793Z,25.2
2019-05-14T05:47:22.646Z,25.2
2019-05-14T05:48:25.077Z,25.2
2019-05-14T05:49:31.714Z,25.2
2019-05-14T05:50:33.925Z,25.2
2019-05-14T05:51:36.368Z,25.2
2019-05-14T05:52:42.792Z,25.1
2019-05-14T05:53:44.700Z,25.2
2019-05-14T05:54:51.665Z,25.1
2019-05-14T05:55:54.087Z,25.1
2019-05-14T05:56:59.830Z,25.1
2019-05-14T05:58:02.134Z,25.1
2019-05-14T05:59:04.172Z,25.1
2019-05-14T06:00:09.364Z,25.1
2019-05-14T06:01:12.831Z,25.1
2019-05-14T06:02:18.358Z,25.2
2019-05-14T06:03:22.185Z,25.1
2019-05-14T06:04:24.624Z,25.1
2019-05-14T06:05:32.139Z,25.1
2019-05-14T06:06:34.284Z,25.1
2019-05-14T06:07:39.192Z,25.1
2019-05-14T06:08:42.674Z,25.1
2019-05-14T06:09:45.087Z,25.1
2019-05-14T06:10:50.064Z,25.1
2019-05-14T06:11:52.502Z,25.1
2019-05-14T06:12:54.376Z,25.1
2019-05-14T06:13:58.702Z,25.1
2019-05-14T06:15:02.180Z,25.1
2019-05-14T06:16:04.349Z,25.1
2019-05-14T06:19:18.977Z,25.1
2019-05-14T06:20:20.851Z,25.1
2019-05-14T06:21:23.891Z,25.1
2019-05-14T06:22:28.527Z,25.1
2019-05-14T06:23:30.664Z,25.1
2019-05-14T06:24:33.286Z,25.1
2019-05-14T06:25:35.764Z,25.1
2019-05-14T06:26:42.663Z,25.1
2019-05-14T06:27:45.082Z,25.1
2019-05-14T06:28:50.812Z,25.1
2019-05-14T06:29:55.479Z,25.1
2019-05-14T06:31:01.638Z,25.1
2019-05-14T06:32:04.069Z,25.1
2019-05-14T06:33:09.005Z,25.1
2019-05-14T06:34:12.167Z,25.1
2019-05-14T06:35:14.604Z,25.1
2019-05-14T06:37:22.194Z,25.1
2019-05-14T06:38:24.355Z,25.1
2019-05-14T06:40:31.516Z,25.1
2019-05-14T06:41:33.939Z,25.1
2019-05-14T06:42:35.569Z,25.1
2019-05-14T06:43:42.474Z,25.1
2019-05-14T06:44:45.086Z,25.1
2019-05-14T06:46:53.980Z,25.1
2019-05-14T06:47:56.702Z,25.1
2019-05-14T06:49:00.929Z,25.1
2019-05-14T06:50:02.806Z,25.1
2019-05-14T06:51:05.231Z,25.1
2019-05-14T06:52:11.863Z,25.1
2019-05-14T06:53:14.265Z,25.1
2019-05-14T06:55:21.875Z,25.1
2019-05-14T06:56:24.499Z,25.1
2019-05-14T06:58:32.111Z,25.1
2019-05-14T06:59:34.543Z,25.1
2019-05-14T07:00:36.172Z,25.1
2019-05-14T07:01:42.095Z,25.1
2019-05-14T07:02:45.315Z,25.1
2019-05-14T07:03:51.953Z,25.1
2019-05-14T07:04:54.117Z,25.1
2019-05-14T07:05:56.535Z,25.1
2019-05-14T07:07:02.958Z,25.1
2019-05-14T07:08:05.403Z,25.1
2019-05-14T07:09:11.556Z,25.1
2019-05-14T07:10:13.716Z,25.1
2019-05-14T07:11:18.871Z,25.1
2019-05-14T07:12:22.138Z,25.1
2019-05-14T07:13:24.017Z,25.1
2019-05-14T07:15:31.632Z,25.1
2019-05-14T07:16:34.077Z,25.1
2019-05-14T07:19:48.734Z,25.1
2019-05-14T07:20:52.425Z,25.1
2019-05-14T07:21:55.463Z,25
2019-05-14T07:23:01.907Z,25.1
2019-05-14T07:24:03.808Z,25
2019-05-14T07:26:12.173Z,25
2019-05-14T07:27:14.794Z,25
2019-05-14T07:29:23.110Z,25
2019-05-14T07:31:31.784Z,25
2019-05-14T07:32:34.214Z,25
2019-05-14T07:34:41.841Z,25
2019-05-14T07:35:44.165Z,25
2019-05-14T07:36:48.886Z,25
2019-05-14T07:37:52.255Z,25
2019-05-14T07:39:59.937Z,25
2019-05-14T07:41:02.397Z,25
2019-05-14T07:42:04.833Z,25
2019-05-14T07:44:12.246Z,25
2019-05-14T07:45:14.663Z,25
2019-05-14T07:47:22.554Z,25
2019-05-14T07:48:24.707Z,25
2019-05-14T07:49:28.857Z,25
2019-05-14T07:50:32.532Z,25
2019-05-14T07:51:34.691Z,25
2019-05-14T07:53:43.029Z,25
2019-05-14T07:54:45.458Z,25
2019-05-14T07:55:50.427Z,25
2019-05-14T07:56:53.811Z,25
2019-05-14T07:57:58.563Z,25
2019-05-14T07:59:03.348Z,25
2019-05-14T08:00:08.033Z,25
2019-05-14T08:01:11.728Z,25
2019-05-14T08:02:13.879Z,25
2019-05-14T08:03:16.054Z,25
2019-05-14T08:04:22.654Z,25
2019-05-14T08:05:25.113Z,25
2019-05-14T08:06:29.172Z,25
2019-05-14T08:07:31.615Z,25
2019-05-14T08:08:34.045Z,25
2019-05-14T08:09:38.679Z,25
2019-05-14T08:10:42.118Z,25
2019-05-14T08:11:45.141Z,25
2019-05-14T08:12:49.361Z,25
2019-05-14T08:13:51.527Z,25
2019-05-14T08:15:59.471Z,25
2019-05-14T08:17:02.119Z,25
2019-05-14T08:18:04.649Z,25
2019-05-14T08:20:18.743Z,25
2019-05-14T08:21:21.179Z,25
2019-05-14T08:22:23.605Z,25
2019-05-14T08:23:27.775Z,25
2019-05-14T08:24:31.693Z,25
2019-05-14T08:25:33.856Z,25
2019-05-14T08:27:41.758Z,25
2019-05-14T08:28:44.189Z,25
2019-05-14T08:30:52.079Z,25
2019-05-14T08:31:54.515Z,25
2019-05-14T08:33:01.133Z,25
2019-05-14T08:35:09.815Z,25
2019-05-14T08:36:11.984Z,25
2019-05-14T08:37:14.630Z,25
2019-05-14T08:39:22.028Z,25
2019-05-14T08:40:23.913Z,25
2019-05-14T08:41:28.624Z,25
2019-05-14T08:44:42.461Z,25
2019-05-14T08:46:51.769Z,25
2019-05-14T08:47:54.146Z,25
2019-05-14T08:50:01.763Z,25
2019-05-14T08:51:03.923Z,25
2019-05-14T08:53:11.823Z,25
2019-05-14T08:54:14.259Z,25
2019-05-14T08:56:21.402Z,25
2019-05-14T08:57:24.209Z,25
2019-05-14T08:59:32.859Z,25
2019-05-14T09:00:35.016Z,25
2019-05-14T09:02:42.418Z,25
2019-05-14T09:03:44.847Z,25
2019-05-14T09:05:52.280Z,25
2019-05-14T09:06:54.707Z,25
2019-05-14T09:08:01.600Z,25
2019-05-14T09:09:04.360Z,25
2019-05-14T09:11:11.964Z,25
2019-05-14T09:12:14.389Z,25
2019-05-14T09:14:21.525Z,25
2019-05-14T09:15:23.425Z,25
2019-05-14T09:17:30.862Z,25
2019-05-14T09:18:33.297Z,25
2019-05-14T09:19:35.751Z,25
2019-05-14T09:20:42.644Z,25
2019-05-14T09:21:45.075Z,25
2019-05-14T09:23:52.697Z,25
2019-05-14T09:24:55.129Z,25
2019-05-14T09:28:10.095Z,25
2019-05-14T09:31:22.137Z,25
2019-05-14T09:32:24.577Z,25
2019-05-14T09:34:32.408Z,25
2019-05-14T09:35:34.563Z,25
2019-05-14T09:37:42.626Z,25
2019-05-14T09:38:45.133Z,25
2019-05-14T09:39:49.734Z,25
2019-05-14T09:41:58.867Z,25
2019-05-14T09:43:00.748Z,25
2019-05-14T09:44:02.907Z,25
2019-05-14T09:45:05.373Z,25
2019-05-14T09:46:11.784Z,25
2019-05-14T09:47:13.943Z,25
2019-05-14T09:48:18.512Z,25
2019-05-14T09:49:20.938Z,25
2019-05-14T09:50:24.384Z,25
2019-05-14T09:51:29.321Z,25
2019-05-14T09:52:31.480Z,25
2019-05-14T09:54:03.231Z,25
2019-05-14T09:55:05.386Z,25
2019-05-14T09:56:12.305Z,25
2019-05-14T09:57:14.196Z,25
2019-05-14T09:59:22.454Z,25
2019-05-14T10:00:24.884Z,25
2019-05-14T10:01:27.053Z,25
2019-05-14T10:02:29.499Z,25
2019-05-14T10:03:31.928Z,25
2019-05-14T10:04:34.083Z,25
2019-05-14T10:05:35.985Z,25
2019-05-14T10:06:40.255Z,25
2019-05-14T10:07:42.631Z,25
2019-05-14T10:08:45.047Z,25
2019-05-14T10:09:51.701Z,25
2019-05-14T10:10:53.834Z,25
2019-05-14T10:11:58.437Z,25
2019-05-14T10:13:03.289Z,25
2019-05-14T10:14:07.786Z,25
2019-05-14T10:15:10.110Z,25
2019-05-14T10:16:12.542Z,25
2019-05-14T10:17:14.986Z,25
2019-05-14T10:18:21.419Z,25
2019-05-14T10:19:23.858Z,25
2019-05-14T10:21:31.281Z,25
2019-05-14T10:22:33.466Z,25
2019-05-14T10:23:35.899Z,25
2019-05-14T10:24:42.041Z,25
2019-05-14T10:25:44.472Z,25
2019-05-14T10:27:51.895Z,25
2019-05-14T10:28:54.333Z,25
2019-05-14T10:29:58.506Z,25
2019-05-14T10:35:22.334Z,25
2019-05-14T10:36:25.332Z,25
2019-05-14T10:38:32.503Z,25
2019-05-14T10:39:34.931Z,25
2019-05-14T10:40:41.557Z,25
2019-05-14T10:41:43.993Z,25
2019-05-14T10:43:51.900Z,25
2019-05-14T10:44:54.330Z,25
2019-05-14T10:47:01.697Z,25
2019-05-14T10:48:03.582Z,25
2019-05-14T10:52:21.511Z,25
2019-05-14T10:53:23.938Z,25
2019-05-14T10:55:31.349Z,25
2019-05-14T10:56:33.774Z,25
2019-05-14T10:57:35.636Z,25
2019-05-14T10:58:38.074Z,25
2019-05-14T10:59:40.573Z,25
2019-05-14T11:00:43.143Z,25
2019-05-14T11:01:45.571Z,25
2019-05-14T11:03:52.715Z,25
2019-05-14T11:04:55.158Z,25
2019-05-14T11:06:02.062Z,25
2019-05-14T11:07:03.953Z,25
2019-05-14T11:08:11.657Z,25
2019-05-14T11:09:13.087Z,25
2019-05-14T11:10:15.239Z,25
2019-05-14T11:11:21.854Z,25
2019-05-14T11:12:24.287Z,25
2019-05-14T11:14:32.894Z,25
2019-05-14T11:15:35.348Z,25
2019-05-14T11:16:43.034Z,25
2019-05-14T11:17:45.467Z,25
2019-05-14T11:18:51.620Z,25
2019-05-14T11:19:53.504Z,25
2019-05-14T11:22:01.403Z,25
2019-05-14T11:23:03.752Z,25
2019-05-14T11:24:06.164Z,25
2019-05-14T11:25:12.587Z,25
2019-05-14T11:26:15.006Z,25
2019-05-14T11:27:21.631Z,25
2019-05-14T11:28:24.077Z,25
2019-05-14T11:29:29.143Z,25
2019-05-14T11:30:32.156Z,25
2019-05-14T11:31:35.417Z,25
2019-05-14T11:32:42.311Z,25
2019-05-14T11:33:44.793Z,25
2019-05-14T11:34:47.260Z,25
2019-05-14T11:35:49.679Z,25
2019-05-14T11:36:52.122Z,25
2019-05-14T11:37:54.040Z,25
2019-05-14T11:40:01.930Z,25
2019-05-14T11:41:04.126Z,25
2019-05-14T11:43:11.547Z,25
2019-05-14T11:44:14.362Z,25
2019-05-14T11:45:16.803Z,25
2019-05-14T11:47:24.255Z,25
2019-05-14T11:48:26.680Z,25
2019-05-14T11:49:28.584Z,25
2019-05-14T11:50:31.015Z,25
2019-05-14T11:52:39.923Z,25
2019-05-14T11:53:42.090Z,25
2019-05-14T11:54:44.522Z,25
2019-05-14T11:56:52.143Z,25
2019-05-14T11:57:54.617Z,25
2019-05-14T11:59:01.250Z,25
2019-05-14T12:00:03.689Z,25
2019-05-14T12:01:05.579Z,25
2019-05-14T12:02:12.500Z,25
2019-05-14T12:03:14.964Z,25
2019-05-14T12:04:21.866Z,25
2019-05-14T12:05:24.288Z,25
2019-05-14T12:06:26.470Z,25
2019-05-14T12:07:29.111Z,25
2019-05-14T12:08:31.742Z,25
2019-05-14T12:09:34.144Z,25
2019-05-14T12:11:42.265Z,25
2019-05-14T12:12:44.444Z,25
2019-05-14T12:14:51.868Z,25
2019-05-14T12:15:54.007Z,25
2019-05-14T12:16:59.687Z,25
2019-05-14T12:18:02.418Z,25
2019-05-14T12:19:04.853Z,25
2019-05-14T12:20:07.287Z,25
2019-05-14T12:21:10.111Z,25
2019-05-14T12:22:13.206Z,25
2019-05-14T12:23:15.603Z,25
2019-05-14T12:24:22.228Z,25
2019-05-14T12:25:24.384Z,25
2019-05-14T12:27:31.532Z,25
2019-05-14T12:28:33.698Z,25
2019-05-14T12:29:36.128Z,25
2019-05-14T12:30:42.548Z,25
2019-05-14T12:31:44.975Z,25
2019-05-14T12:32:51.638Z,25
2019-05-14T12:33:54.075Z,25
2019-05-14T12:34:59.175Z,25
2019-05-14T12:36:02.471Z,25
2019-05-14T12:37:04.345Z,25
2019-05-14T12:38:06.677Z,25
2019-05-14T12:39:13.585Z,25
2019-05-14T12:40:16.047Z,25
2019-05-14T12:41:22.455Z,25
2019-05-14T12:42:24.887Z,25
2019-05-14T12:43:29.514Z,25
2019-05-14T12:44:31.940Z,25
2019-05-14T12:45:34.380Z,25
2019-05-14T12:46:36.793Z,25
2019-05-14T12:47:39.300Z,25
2019-05-14T12:48:41.734Z,25
2019-05-14T12:49:44.162Z,25
2019-05-14T12:51:52.059Z,25
2019-05-14T12:52:54.206Z,25
2019-05-14T12:55:01.337Z,25
2019-05-14T12:56:03.507Z,25
2019-05-14T12:57:05.656Z,25
2019-05-14T12:58:08.972Z,25
2019-05-14T12:59:10.860Z,25
2019-05-14T13:00:12.755Z,25
2019-05-14T13:01:15.197Z,25
2019-05-14T13:02:19.806Z,25
2019-05-14T13:03:21.712Z,25
2019-05-14T13:04:24.146Z,25
2019-05-14T13:05:26.015Z,25
2019-05-14T13:06:32.165Z,25
2019-05-14T13:07:34.602Z,25
2019-05-14T13:09:42.018Z,25
2019-05-14T13:10:44.443Z,25
2019-05-14T13:12:51.561Z,25
2019-05-14T13:13:54.019Z,25
2019-05-14T13:17:06.408Z,25
2019-05-14T13:18:12.828Z,25
2019-05-14T13:19:14.698Z,25
2019-05-14T13:21:22.038Z,25
2019-05-14T13:23:30.006Z,25
2019-05-14T13:24:32.438Z,25
2019-05-14T13:25:34.578Z,25
2019-05-14T13:27:41.935Z,25
2019-05-14T13:28:44.103Z,25
2019-05-14T13:30:51.985Z,25
2019-05-14T13:31:54.181Z,25
2019-05-14T13:32:59.053Z,25
2019-05-14T13:34:02.264Z,25
2019-05-14T13:35:04.695Z,25
2019-05-14T13:36:11.313Z,25
2019-05-14T13:37:13.474Z,25
2019-05-14T13:38:15.766Z,25
2019-05-14T13:39:20.678Z,25
2019-05-14T13:40:23.140Z,25
2019-05-14T13:41:25.041Z,25
2019-05-14T13:42:30.657Z,25
2019-05-14T13:43:33.715Z,25
2019-05-14T13:45:41.626Z,25
2019-05-14T13:46:43.787Z,25
2019-05-14T13:48:51.666Z,25
2019-05-14T13:49:54.095Z,25
2019-05-14T13:50:56.561Z,25
2019-05-14T13:51:58.717Z,25
2019-05-14T13:55:11.550Z,25
2019-05-14T13:56:13.977Z,25
2019-05-14T13:58:22.178Z,25
2019-05-14T13:59:24.332Z,25
2019-05-14T14:00:26.528Z,25
2019-05-14T14:01:30.492Z,25
2019-05-14T14:02:32.957Z,25
2019-05-14T14:03:35.482Z,25
2019-05-14T14:04:42.480Z,25
2019-05-14T14:05:44.921Z,25
2019-05-14T14:07:52.557Z,25
2019-05-14T14:08:55.032Z,25
2019-05-14T14:12:09.258Z,25
2019-05-14T14:13:12.433Z,25
2019-05-14T14:14:15.079Z,25
2019-05-14T14:15:17.234Z,25
2019-05-14T14:16:20.867Z,25
2019-05-14T14:17:23.300Z,25
2019-05-14T14:19:33.108Z,25
2019-05-14T14:20:35.284Z,25
2019-05-14T14:22:42.940Z,25
2019-05-14T14:23:45.361Z,25
2019-05-14T14:24:51.784Z,25
2019-05-14T14:25:59.504Z,25
2019-05-14T14:27:01.780Z,25
2019-05-14T14:28:04.224Z,25
2019-05-14T14:30:12.108Z,25
2019-05-14T14:31:14.539Z,25.1
2019-05-14T14:33:21.960Z,25.1
2019-05-14T14:34:24.397Z,25
2019-05-14T14:35:30.184Z,25
2019-05-14T14:36:32.566Z,25.1
2019-05-14T14:37:34.832Z,25.1
2019-05-14T14:39:42.802Z,25.1
2019-05-14T14:40:45.240Z,25.1
2019-05-14T14:41:51.880Z,25.1
2019-05-14T14:42:54.320Z,25.1
2019-05-14T14:43:56.744Z,25.1
2019-05-14T14:44:58.927Z,25.1
2019-05-14T14:46:01.350Z,25.1
2019-05-14T14:47:09.086Z,25.1
2019-05-14T14:48:13.596Z,25.1
2019-05-14T14:49:18.738Z,25.1
2019-05-14T14:50:21.965Z,25.1
2019-05-14T14:51:24.405Z,25.1
2019-05-14T14:55:41.804Z,25.1
2019-05-14T14:56:44.230Z,25
2019-05-14T14:58:51.648Z,25.1
2019-05-14T15:01:00.517Z,25
2019-05-14T15:02:02.957Z,25.1
2019-05-14T15:03:05.408Z,25.1
2019-05-14T15:06:17.857Z,25
2019-05-14T15:07:20.347Z,25
2019-05-14T15:08:22.496Z,25
2019-05-14T15:09:24.943Z,25
2019-05-14T15:10:29.433Z,25
2019-05-14T15:11:31.851Z,25
2019-05-14T15:13:40.146Z,25
2019-05-14T15:14:42.588Z,25
2019-05-14T15:15:44.767Z,25
2019-05-14T15:17:52.176Z,25
2019-05-14T15:18:54.612Z,25
2019-05-14T15:20:01.526Z,25
2019-05-14T15:21:04.003Z,25
2019-05-14T15:23:11.568Z,25
2019-05-14T15:25:19.527Z,25
2019-05-14T15:26:21.975Z,25
2019-05-14T15:27:24.073Z,25
2019-05-14T15:28:26.267Z,25
2019-05-14T15:29:29.415Z,25
2019-05-14T15:30:31.903Z,25
2019-05-14T15:31:34.078Z,25
2019-05-14T15:32:36.247Z,25
2019-05-14T15:33:38.860Z,25
2019-05-14T15:34:41.413Z,25
2019-05-14T15:35:43.857Z,25
2019-05-14T15:37:51.830Z,25
2019-05-14T15:38:54.266Z,25
2019-05-14T15:39:56.690Z,25
2019-05-14T15:41:00.668Z,25
2019-05-14T15:44:13.064Z,25
2019-05-14T15:45:17.476Z,25
2019-05-14T15:46:20.406Z,25
2019-05-14T15:47:22.841Z,25
2019-05-14T15:48:25.271Z,25
2019-05-14T15:49:29.538Z,25
2019-05-14T15:50:33.875Z,25
2019-05-14T15:51:36.295Z,25
2019-05-14T15:52:43.198Z,25
2019-05-14T15:54:51.784Z,25
2019-05-14T15:55:54.049Z,25
2019-05-14T15:56:58.620Z,25
2019-05-14T15:58:02.113Z,25
2019-05-14T15:59:04.910Z,25
2019-05-14T16:00:11.846Z,25
2019-05-14T16:01:13.711Z,25
2019-05-14T16:02:16.164Z,25
2019-05-14T16:03:22.303Z,25
2019-05-14T16:04:24.451Z,25.1
2019-05-14T16:06:31.884Z,25.1
2019-05-14T16:07:34.256Z,25
2019-05-14T16:08:39.798Z,25
2019-05-14T16:09:42.651Z,25.1
2019-05-14T16:10:45.076Z,25
2019-05-14T16:11:49.348Z,25.1
2019-05-14T16:12:52.494Z,25.1
2019-05-14T16:13:54.917Z,25.1
2019-05-14T16:14:57.943Z,25
2019-05-14T16:15:59.843Z,25.1
2019-05-14T16:17:02.451Z,25
2019-05-14T16:19:10.063Z,25.1
2019-05-14T16:20:12.494Z,25.1
2019-05-14T16:21:14.908Z,25.1
2019-05-14T16:22:23.526Z,25.1
2019-05-14T16:24:30.947Z,25.1
2019-05-14T16:25:33.382Z,25.1
2019-05-14T16:26:35.816Z,25.1
2019-05-14T16:28:42.964Z,25.1
2019-05-14T16:29:46.806Z,25
2019-05-14T16:30:50.997Z,25.1
2019-05-14T16:31:54.049Z,25.1
2019-05-14T16:32:56.479Z,25
2019-05-14T16:34:03.418Z,25.1
2019-05-14T16:35:08.768Z,25.1
2019-05-14T16:36:12.026Z,25.1
2019-05-14T16:37:15.161Z,25.1
2019-05-14T16:39:28.907Z,25.1
2019-05-14T16:40:31.955Z,25.1
2019-05-14T16:41:34.128Z,25.1
2019-05-14T16:42:39.220Z,25.1
2019-05-14T16:43:42.360Z,25.1
2019-05-14T16:44:44.806Z,25.1
2019-05-14T16:46:52.430Z,25.1
2019-05-14T16:47:54.612Z,25.1
2019-05-14T16:50:01.977Z,25.1
2019-05-14T16:51:04.152Z,25.1
2019-05-14T16:53:12.712Z,25.1
2019-05-14T16:54:15.148Z,25.1
2019-05-14T16:57:31.530Z,25.1
2019-05-14T16:58:33.962Z,25.1
2019-05-14T16:59:39.272Z,25.1
2019-05-14T17:00:42.170Z,25.1
2019-05-14T17:01:44.329Z,25.1
2019-05-14T17:03:51.748Z,25.1
2019-05-14T17:04:54.233Z,25.1
2019-05-14T17:07:01.382Z,25.1
2019-05-14T17:08:03.806Z,25.1
2019-05-14T17:10:11.716Z,25.1
2019-05-14T17:11:14.164Z,25.1
2019-05-14T17:13:21.755Z,25.1
2019-05-14T17:14:24.356Z,25.1
2019-05-14T17:16:32.361Z,25.1
2019-05-14T17:17:34.806Z,25.1
2019-05-14T17:18:37.238Z,25.1
2019-05-14T17:19:39.797Z,25.1
2019-05-14T17:20:42.237Z,25.1
2019-05-14T17:21:44.689Z,25.1
2019-05-14T17:23:52.092Z,25.1
2019-05-14T17:24:54.524Z,25.1
2019-05-14T17:26:01.433Z,25.1
2019-05-14T17:27:03.616Z,25.1
2019-05-14T17:28:08.322Z,25.1
2019-05-14T17:29:11.469Z,25.1
2019-05-14T17:30:13.899Z,25.1
2019-05-14T17:31:18.743Z,25.1
2019-05-14T17:32:22.075Z,25.1
2019-05-14T17:33:24.510Z,25.1
2019-05-14T17:35:32.425Z,25.1
2019-05-14T17:36:35.098Z,25.1
2019-05-14T17:37:41.267Z,25.1
2019-05-14T17:38:43.704Z,25.1
2019-05-14T17:39:46.181Z,25.1
2019-05-14T17:40:50.587Z,25.1
2019-05-14T17:41:53.038Z,25.1
2019-05-14T17:42:55.196Z,25.1
2019-05-14T17:43:59.562Z,25.1
2019-05-14T17:45:02.001Z,25.1
2019-05-14T17:46:04.157Z,25.1
2019-05-14T17:47:06.581Z,25.1
2019-05-14T17:48:09.022Z,25.1
2019-05-14T17:49:11.829Z,25.1
2019-05-14T17:50:14.293Z,25.1
2019-05-14T17:52:22.958Z,25.1
2019-05-14T17:53:25.397Z,25.1